sensor_id;sensor_type;location;lat;lon;timestamp;P1;durP1;ratioP1;P2;durP2;ratioP2
84357;SDS011;74548;47.712;9.272;2024-02-23T00:02:00;0.20;;;0.10;;
84357;SDS011;74548;47.712;9.272;2024-02-23T00:04:25;0.30;;;0.10;;
84357;SDS011;74548;47.712;9.272;2024-02-23T00:10:18;0.50;;;0.15;;
84357;SDS011;74548;47.712;9.272;2024-02-23T00:15:14;0.22;;;0.00;;
84357;SDS011;74548;47.712;9.272;2024-02-23T00:17:39;1.50;;;0.30;;
84357;SDS011;74548;47.712;9.272;2024-02-23T00:20:05;0.00;;;0.00;;
84357;SDS011;74548;47.712;9.272;2024-02-23T00:22:35;0.47;;;0.10;;
84357;SDS011;74548;47.712;9.272;2024-02-23T00:25:01;0.05;;;0.05;;
84357;SDS011;74548;47.712;9.272;2024-02-23T00:27:26;0.20;;;0.20;;
84357;SDS011;74548;47.712;9.272;2024-02-23T00:29:51;0.40;;;0.10;;
84357;SDS011;74548;47.712;9.272;2024-02-23T00:32:16;0.30;;;0.20;;
84357;SDS011;74548;47.712;9.272;2024-02-23T00:34:42;0.10;;;0.10;;
84357;SDS011;74548;47.712;9.272;2024-02-23T00:37:08;0.00;;;0.00;;
84357;SDS011;74548;47.712;9.272;2024-02-23T00:39:33;0.75;;;0.10;;
84357;SDS011;74548;47.712;9.272;2024-02-23T00:41:59;2.10;;;0.10;;
84357;SDS011;74548;47.712;9.272;2024-02-23T00:44:24;0.30;;;0.10;;
84357;SDS011;74548;47.712;9.272;2024-02-23T00:46:49;0.08;;;0.00;;
84357;SDS011;74548;47.712;9.272;2024-02-23T00:49:15;0.38;;;0.10;;
84357;SDS011;74548;47.712;9.272;2024-02-23T00:51:40;0.90;;;0.43;;
84357;SDS011;74548;47.712;9.272;2024-02-23T00:54:06;0.03;;;0.03;;
84357;SDS011;74548;47.712;9.272;2024-02-23T00:56:32;0.98;;;0.25;;
84357;SDS011;74548;47.712;9.272;2024-02-23T00:58:59;0.98;;;0.10;;
84357;SDS011;74548;47.712;9.272;2024-02-23T01:01:25;0.73;;;0.13;;
84357;SDS011;74548;47.712;9.272;2024-02-23T01:03:51;0.03;;;0.00;;
84357;SDS011;74548;47.712;9.272;2024-02-23T01:06:17;0.00;;;0.00;;
84357;SDS011;74548;47.712;9.272;2024-02-23T01:08:42;0.35;;;0.10;;
84357;SDS011;74548;47.712;9.272;2024-02-23T01:11:08;0.20;;;0.05;;
84357;SDS011;74548;47.712;9.272;2024-02-23T01:13:33;0.20;;;0.10;;
84357;SDS011;74548;47.712;9.272;2024-02-23T01:15:58;0.30;;;0.10;;
84357;SDS011;74548;47.712;9.272;2024-02-23T01:18:24;0.40;;;0.10;;
84357;SDS011;74548;47.712;9.272;2024-02-23T01:20:49;0.30;;;0.10;;
84357;SDS011;74548;47.712;9.272;2024-02-23T01:23:15;0.40;;;0.10;;
84357;SDS011;74548;47.712;9.272;2024-02-23T01:25:40;0.00;;;0.00;;
84357;SDS011;74548;47.712;9.272;2024-02-23T01:28:05;0.47;;;0.20;;
84357;SDS011;74548;47.712;9.272;2024-02-23T01:30:31;0.38;;;0.10;;
84357;SDS011;74548;47.712;9.272;2024-02-23T01:32:56;0.00;;;0.00;;
84357;SDS011;74548;47.712;9.272;2024-02-23T01:35:22;0.20;;;0.20;;
84357;SDS011;74548;47.712;9.272;2024-02-23T01:37:47;0.13;;;0.05;;
84357;SDS011;74548;47.712;9.272;2024-02-23T01:40:13;0.10;;;0.10;;
84357;SDS011;74548;47.712;9.272;2024-02-23T01:42:38;0.82;;;0.10;;
84357;SDS011;74548;47.712;9.272;2024-02-23T01:45:04;0.17;;;0.10;;
84357;SDS011;74548;47.712;9.272;2024-02-23T01:47:29;1.17;;;0.10;;
84357;SDS011;74548;47.712;9.272;2024-02-23T01:49:55;0.32;;;0.15;;
84357;SDS011;74548;47.712;9.272;2024-02-23T01:52:24;0.28;;;0.10;;
84357;SDS011;74548;47.712;9.272;2024-02-23T01:54:49;0.15;;;0.10;;
84357;SDS011;74548;47.712;9.272;2024-02-23T01:57:15;0.57;;;0.10;;
84357;SDS011;74548;47.712;9.272;2024-02-23T01:59:41;0.15;;;0.08;;
84357;SDS011;74548;47.712;9.272;2024-02-23T02:02:07;0.28;;;0.10;;
84357;SDS011;74548;47.712;9.272;2024-02-23T02:04:32;0.22;;;0.13;;
84357;SDS011;74548;47.712;9.272;2024-02-23T02:06:58;0.03;;;0.03;;
84357;SDS011;74548;47.712;9.272;2024-02-23T02:09:25;0.08;;;0.00;;
84357;SDS011;74548;47.712;9.272;2024-02-23T02:11:51;0.10;;;0.00;;
84357;SDS011;74548;47.712;9.272;2024-02-23T02:14:17;0.00;;;0.00;;
84357;SDS011;74548;47.712;9.272;2024-02-23T02:16:42;0.15;;;0.10;;
84357;SDS011;74548;47.712;9.272;2024-02-23T02:19:12;0.10;;;0.08;;
84357;SDS011;74548;47.712;9.272;2024-02-23T02:21:38;0.03;;;0.00;;
84357;SDS011;74548;47.712;9.272;2024-02-23T02:24:03;0.15;;;0.00;;
84357;SDS011;74548;47.712;9.272;2024-02-23T02:26:30;0.20;;;0.10;;
84357;SDS011;74548;47.712;9.272;2024-02-23T02:28:55;0.22;;;0.10;;
84357;SDS011;74548;47.712;9.272;2024-02-23T02:31:21;0.55;;;0.10;;
84357;SDS011;74548;47.712;9.272;2024-02-23T02:33:46;0.20;;;0.10;;
84357;SDS011;74548;47.712;9.272;2024-02-23T02:36:11;0.17;;;0.10;;
84357;SDS011;74548;47.712;9.272;2024-02-23T02:38:37;0.13;;;0.00;;
84357;SDS011;74548;47.712;9.272;2024-02-23T02:41:03;0.43;;;0.05;;
84357;SDS011;74548;47.712;9.272;2024-02-23T02:43:30;0.93;;;0.10;;
84357;SDS011;74548;47.712;9.272;2024-02-23T02:48:19;0.25;;;0.10;;
84357;SDS011;74548;47.712;9.272;2024-02-23T02:50:44;2.92;;;0.28;;
84357;SDS011;74548;47.712;9.272;2024-02-23T02:53:10;1.00;;;0.10;;
84357;SDS011;74548;47.712;9.272;2024-02-23T02:55:36;1.60;;;0.17;;
84357;SDS011;74548;47.712;9.272;2024-02-23T02:58:04;0.28;;;0.08;;
84357;SDS011;74548;47.712;9.272;2024-02-23T03:00:29;0.17;;;0.07;;
84357;SDS011;74548;47.712;9.272;2024-02-23T03:02:56;0.00;;;0.00;;
84357;SDS011;74548;47.712;9.272;2024-02-23T03:05:21;0.47;;;0.10;;
84357;SDS011;74548;47.712;9.272;2024-02-23T03:07:46;1.17;;;0.10;;
84357;SDS011;74548;47.712;9.272;2024-02-23T03:10:12;0.55;;;0.10;;
84357;SDS011;74548;47.712;9.272;2024-02-23T03:12:37;0.10;;;0.00;;
84357;SDS011;74548;47.712;9.272;2024-02-23T03:15:03;0.90;;;0.20;;
84357;SDS011;74548;47.712;9.272;2024-02-23T03:17:29;0.08;;;0.00;;
84357;SDS011;74548;47.712;9.272;2024-02-23T03:19:54;1.02;;;0.08;;
84357;SDS011;74548;47.712;9.272;2024-02-23T03:22:20;0.65;;;0.10;;
84357;SDS011;74548;47.712;9.272;2024-02-23T03:24:45;0.20;;;0.10;;
84357;SDS011;74548;47.712;9.272;2024-02-23T03:27:10;0.23;;;0.10;;
84357;SDS011;74548;47.712;9.272;2024-02-23T03:29:37;0.10;;;0.00;;
84357;SDS011;74548;47.712;9.272;2024-02-23T03:32:03;0.30;;;0.05;;
84357;SDS011;74548;47.712;9.272;2024-02-23T03:34:29;0.13;;;0.10;;
84357;SDS011;74548;47.712;9.272;2024-02-23T03:36:54;0.30;;;0.20;;
84357;SDS011;74548;47.712;9.272;2024-02-23T03:39:19;0.10;;;0.00;;
84357;SDS011;74548;47.712;9.272;2024-02-23T03:41:45;0.35;;;0.10;;
84357;SDS011;74548;47.712;9.272;2024-02-23T03:44:10;0.52;;;0.30;;
84357;SDS011;74548;47.712;9.272;2024-02-23T03:46:36;0.68;;;0.10;;
84357;SDS011;74548;47.712;9.272;2024-02-23T03:49:01;1.02;;;0.20;;
84357;SDS011;74548;47.712;9.272;2024-02-23T03:51:27;0.28;;;0.10;;
84357;SDS011;74548;47.712;9.272;2024-02-23T03:53:52;0.23;;;0.20;;
84357;SDS011;74548;47.712;9.272;2024-02-23T03:56:17;0.28;;;0.10;;
84357;SDS011;74548;47.712;9.272;2024-02-23T03:58:42;0.60;;;0.20;;
84357;SDS011;74548;47.712;9.272;2024-02-23T04:01:08;1.65;;;0.15;;
84357;SDS011;74548;47.712;9.272;2024-02-23T04:03:34;0.10;;;0.10;;
84357;SDS011;74548;47.712;9.272;2024-02-23T04:06:00;0.03;;;0.00;;
84357;SDS011;74548;47.712;9.272;2024-02-23T04:08:25;0.13;;;0.10;;
84357;SDS011;74548;47.712;9.272;2024-02-23T04:10:51;1.60;;;0.40;;
84357;SDS011;74548;47.712;9.272;2024-02-23T04:13:16;1.33;;;0.10;;
84357;SDS011;74548;47.712;9.272;2024-02-23T04:15:43;0.22;;;0.10;;
84357;SDS011;74548;47.712;9.272;2024-02-23T04:20:24;0.35;;;0.20;;
84357;SDS011;74548;47.712;9.272;2024-02-23T04:22:50;0.55;;;0.20;;
84357;SDS011;74548;47.712;9.272;2024-02-23T04:25:15;0.55;;;0.30;;
84357;SDS011;74548;47.712;9.272;2024-02-23T04:27:40;0.23;;;0.20;;
84357;SDS011;74548;47.712;9.272;2024-02-23T04:30:06;1.10;;;0.20;;
84357;SDS011;74548;47.712;9.272;2024-02-23T04:32:32;0.50;;;0.20;;
84357;SDS011;74548;47.712;9.272;2024-02-23T04:34:57;0.75;;;0.20;;
84357;SDS011;74548;47.712;9.272;2024-02-23T04:37:23;0.43;;;0.30;;
84357;SDS011;74548;47.712;9.272;2024-02-23T04:39:48;0.20;;;0.20;;
84357;SDS011;74548;47.712;9.272;2024-02-23T04:42:13;1.20;;;0.10;;
84357;SDS011;74548;47.712;9.272;2024-02-23T04:44:40;0.30;;;0.20;;
84357;SDS011;74548;47.712;9.272;2024-02-23T04:47:06;1.10;;;0.20;;
84357;SDS011;74548;47.712;9.272;2024-02-23T04:51:54;0.70;;;0.30;;
84357;SDS011;74548;47.712;9.272;2024-02-23T04:54:20;0.85;;;0.22;;
84357;SDS011;74548;47.712;9.272;2024-02-23T04:56:46;0.35;;;0.22;;
84357;SDS011;74548;47.712;9.272;2024-02-23T05:01:25;1.42;;;0.22;;
84357;SDS011;74548;47.712;9.272;2024-02-23T05:03:50;0.52;;;0.10;;
84357;SDS011;74548;47.712;9.272;2024-02-23T05:06:17;0.70;;;0.20;;
84357;SDS011;74548;47.712;9.272;2024-02-23T05:08:42;0.70;;;0.38;;
84357;SDS011;74548;47.712;9.272;2024-02-23T05:11:08;0.47;;;0.30;;
84357;SDS011;74548;47.712;9.272;2024-02-23T05:13:34;0.85;;;0.20;;
84357;SDS011;74548;47.712;9.272;2024-02-23T05:15:59;0.50;;;0.22;;
84357;SDS011;74548;47.712;9.272;2024-02-23T05:18:25;0.30;;;0.20;;
84357;SDS011;74548;47.712;9.272;2024-02-23T05:20:51;0.38;;;0.30;;
84357;SDS011;74548;47.712;9.272;2024-02-23T05:23:16;0.65;;;0.20;;
84357;SDS011;74548;47.712;9.272;2024-02-23T05:25:42;0.32;;;0.28;;
84357;SDS011;74548;47.712;9.272;2024-02-23T05:28:07;1.80;;;0.30;;
84357;SDS011;74548;47.712;9.272;2024-02-23T05:30:33;0.75;;;0.40;;
84357;SDS011;74548;47.712;9.272;2024-02-23T05:32:58;0.68;;;0.20;;
84357;SDS011;74548;47.712;9.272;2024-02-23T05:35:24;0.65;;;0.30;;
84357;SDS011;74548;47.712;9.272;2024-02-23T05:37:50;1.27;;;0.40;;
84357;SDS011;74548;47.712;9.272;2024-02-23T05:40:15;0.90;;;0.50;;
84357;SDS011;74548;47.712;9.272;2024-02-23T05:42:40;0.60;;;0.32;;
84357;SDS011;74548;47.712;9.272;2024-02-23T05:45:06;1.45;;;0.50;;
84357;SDS011;74548;47.712;9.272;2024-02-23T05:47:40;0.52;;;0.38;;
84357;SDS011;74548;47.712;9.272;2024-02-23T05:50:07;0.50;;;0.40;;
84357;SDS011;74548;47.712;9.272;2024-02-23T05:52:34;0.95;;;0.40;;
84357;SDS011;74548;47.712;9.272;2024-02-23T05:55:01;1.58;;;0.60;;
84357;SDS011;74548;47.712;9.272;2024-02-23T05:57:27;0.50;;;0.32;;
84357;SDS011;74548;47.712;9.272;2024-02-23T05:59:52;0.55;;;0.30;;
84357;SDS011;74548;47.712;9.272;2024-02-23T06:02:18;0.50;;;0.30;;
84357;SDS011;74548;47.712;9.272;2024-02-23T06:04:44;0.73;;;0.38;;
84357;SDS011;74548;47.712;9.272;2024-02-23T06:07:10;0.40;;;0.30;;
84357;SDS011;74548;47.712;9.272;2024-02-23T06:09:36;0.65;;;0.50;;
84357;SDS011;74548;47.712;9.272;2024-02-23T06:12:01;0.98;;;0.40;;
84357;SDS011;74548;47.712;9.272;2024-02-23T06:14:26;1.13;;;0.60;;
84357;SDS011;74548;47.712;9.272;2024-02-23T06:16:52;1.27;;;0.50;;
84357;SDS011;74548;47.712;9.272;2024-02-23T06:19:17;0.68;;;0.38;;
84357;SDS011;74548;47.712;9.272;2024-02-23T06:21:42;0.73;;;0.50;;
84357;SDS011;74548;47.712;9.272;2024-02-23T06:24:08;2.00;;;0.60;;
84357;SDS011;74548;47.712;9.272;2024-02-23T06:26:34;0.75;;;0.50;;
84357;SDS011;74548;47.712;9.272;2024-02-23T06:29:00;1.00;;;0.50;;
84357;SDS011;74548;47.712;9.272;2024-02-23T06:31:25;0.82;;;0.40;;
84357;SDS011;74548;47.712;9.272;2024-02-23T06:33:50;0.93;;;0.50;;
84357;SDS011;74548;47.712;9.272;2024-02-23T06:36:17;0.47;;;0.40;;
84357;SDS011;74548;47.712;9.272;2024-02-23T06:38:43;0.50;;;0.43;;
84357;SDS011;74548;47.712;9.272;2024-02-23T06:41:10;1.48;;;0.43;;
84357;SDS011;74548;47.712;9.272;2024-02-23T06:43:36;0.50;;;0.30;;
84357;SDS011;74548;47.712;9.272;2024-02-23T06:46:08;1.17;;;0.30;;
84357;SDS011;74548;47.712;9.272;2024-02-23T06:48:34;0.30;;;0.30;;
84357;SDS011;74548;47.712;9.272;2024-02-23T06:51:03;1.05;;;0.52;;
84357;SDS011;74548;47.712;9.272;2024-02-23T06:53:29;0.95;;;0.82;;
84357;SDS011;74548;47.712;9.272;2024-02-23T06:55:55;0.77;;;0.60;;
84357;SDS011;74548;47.712;9.272;2024-02-23T06:58:21;2.70;;;0.88;;
84357;SDS011;74548;47.712;9.272;2024-02-23T07:00:46;0.77;;;0.57;;
84357;SDS011;74548;47.712;9.272;2024-02-23T07:03:11;0.50;;;0.40;;
84357;SDS011;74548;47.712;9.272;2024-02-23T07:05:37;0.90;;;0.50;;
84357;SDS011;74548;47.712;9.272;2024-02-23T07:08:02;0.60;;;0.45;;
84357;SDS011;74548;47.712;9.272;2024-02-23T07:10:28;1.48;;;0.63;;
84357;SDS011;74548;47.712;9.272;2024-02-23T07:12:53;1.73;;;0.70;;
84357;SDS011;74548;47.712;9.272;2024-02-23T07:15:21;1.60;;;0.50;;
84357;SDS011;74548;47.712;9.272;2024-02-23T07:17:46;2.20;;;0.57;;
84357;SDS011;74548;47.712;9.272;2024-02-23T07:20:12;2.72;;;0.52;;
84357;SDS011;74548;47.712;9.272;2024-02-23T07:22:38;0.82;;;0.40;;
84357;SDS011;74548;47.712;9.272;2024-02-23T07:25:04;1.03;;;0.77;;
84357;SDS011;74548;47.712;9.272;2024-02-23T07:27:32;1.30;;;0.60;;
84357;SDS011;74548;47.712;9.272;2024-02-23T07:29:57;0.80;;;0.50;;
84357;SDS011;74548;47.712;9.272;2024-02-23T07:32:22;1.27;;;0.70;;
84357;SDS011;74548;47.712;9.272;2024-02-23T07:34:48;2.40;;;0.70;;
84357;SDS011;74548;47.712;9.272;2024-02-23T07:39:40;2.53;;;0.75;;
84357;SDS011;74548;47.712;9.272;2024-02-23T07:42:06;3.25;;;1.10;;
84357;SDS011;74548;47.712;9.272;2024-02-23T07:44:33;1.60;;;1.00;;
84357;SDS011;74548;47.712;9.272;2024-02-23T07:47:01;2.35;;;0.88;;
84357;SDS011;74548;47.712;9.272;2024-02-23T07:51:53;1.42;;;0.88;;
84357;SDS011;74548;47.712;9.272;2024-02-23T07:54:19;2.33;;;0.88;;
84357;SDS011;74548;47.712;9.272;2024-02-23T07:56:44;1.73;;;0.70;;
84357;SDS011;74548;47.712;9.272;2024-02-23T07:59:09;1.27;;;0.75;;
84357;SDS011;74548;47.712;9.272;2024-02-23T08:01:35;2.27;;;1.10;;
84357;SDS011;74548;47.712;9.272;2024-02-23T08:04:00;1.50;;;0.90;;
84357;SDS011;74548;47.712;9.272;2024-02-23T08:06:26;1.13;;;0.80;;
84357;SDS011;74548;47.712;9.272;2024-02-23T08:08:51;1.90;;;0.90;;
84357;SDS011;74548;47.712;9.272;2024-02-23T08:13:43;1.52;;;0.90;;
84357;SDS011;74548;47.712;9.272;2024-02-23T08:16:08;2.57;;;0.70;;
84357;SDS011;74548;47.712;9.272;2024-02-23T08:18:34;1.83;;;1.00;;
84357;SDS011;74548;47.712;9.272;2024-02-23T08:20:59;1.30;;;0.90;;
84357;SDS011;74548;47.712;9.272;2024-02-23T08:23:27;1.33;;;0.90;;
84357;SDS011;74548;47.712;9.272;2024-02-23T08:25:53;2.40;;;1.10;;
84357;SDS011;74548;47.712;9.272;2024-02-23T08:28:18;1.88;;;0.95;;
84357;SDS011;74548;47.712;9.272;2024-02-23T08:30:44;1.42;;;0.80;;
84357;SDS011;74548;47.712;9.272;2024-02-23T08:33:09;1.50;;;0.70;;
84357;SDS011;74548;47.712;9.272;2024-02-23T08:37:54;1.55;;;0.85;;
84357;SDS011;74548;47.712;9.272;2024-02-23T08:40:19;1.92;;;1.00;;
84357;SDS011;74548;47.712;9.272;2024-02-23T08:42:44;1.45;;;0.85;;
84357;SDS011;74548;47.712;9.272;2024-02-23T08:45:11;2.75;;;0.80;;
84357;SDS011;74548;47.712;9.272;2024-02-23T08:47:38;2.25;;;1.00;;
84357;SDS011;74548;47.712;9.272;2024-02-23T08:50:04;1.45;;;0.93;;
84357;SDS011;74548;47.712;9.272;2024-02-23T08:52:30;2.75;;;0.75;;
84357;SDS011;74548;47.712;9.272;2024-02-23T08:54:55;1.60;;;0.53;;
84357;SDS011;74548;47.712;9.272;2024-02-23T08:57:21;3.05;;;1.05;;
84357;SDS011;74548;47.712;9.272;2024-02-23T09:02:12;2.45;;;1.10;;
84357;SDS011;74548;47.712;9.272;2024-02-23T09:04:37;1.52;;;0.90;;
84357;SDS011;74548;47.712;9.272;2024-02-23T09:07:03;1.75;;;0.70;;
84357;SDS011;74548;47.712;9.272;2024-02-23T09:09:28;1.70;;;0.90;;
84357;SDS011;74548;47.712;9.272;2024-02-23T09:11:53;2.55;;;1.20;;
84357;SDS011;74548;47.712;9.272;2024-02-23T09:14:19;4.05;;;1.08;;
84357;SDS011;74548;47.712;9.272;2024-02-23T09:16:44;1.45;;;0.95;;
84357;SDS011;74548;47.712;9.272;2024-02-23T09:19:11;1.30;;;0.75;;
84357;SDS011;74548;47.712;9.272;2024-02-23T09:21:37;1.60;;;1.00;;
84357;SDS011;74548;47.712;9.272;2024-02-23T09:24:02;2.45;;;0.77;;
84357;SDS011;74548;47.712;9.272;2024-02-23T09:28:46;2.78;;;1.05;;
84357;SDS011;74548;47.712;9.272;2024-02-23T09:31:11;1.42;;;0.88;;
84357;SDS011;74548;47.712;9.272;2024-02-23T09:33:37;1.65;;;0.80;;
84357;SDS011;74548;47.712;9.272;2024-02-23T09:36:02;1.70;;;0.87;;
84357;SDS011;74548;47.712;9.272;2024-02-23T09:39:58;1.63;;;0.80;;
84357;SDS011;74548;47.712;9.272;2024-02-23T09:42:24;3.05;;;1.00;;
84357;SDS011;74548;47.712;9.272;2024-02-23T09:44:58;2.05;;;1.17;;
84357;SDS011;74548;47.712;9.272;2024-02-23T09:47:28;1.33;;;0.82;;
84357;SDS011;74548;47.712;9.272;2024-02-23T09:49:54;3.30;;;1.10;;
84357;SDS011;74548;47.712;9.272;2024-02-23T09:52:20;1.60;;;0.80;;
84357;SDS011;74548;47.712;9.272;2024-02-23T09:54:46;2.00;;;1.02;;
84357;SDS011;74548;47.712;9.272;2024-02-23T09:57:12;3.10;;;0.95;;
84357;SDS011;74548;47.712;9.272;2024-02-23T09:59:39;1.55;;;1.05;;
84357;SDS011;74548;47.712;9.272;2024-02-23T10:02:06;1.42;;;1.00;;
84357;SDS011;74548;47.712;9.272;2024-02-23T10:04:35;1.92;;;0.77;;
84357;SDS011;74548;47.712;9.272;2024-02-23T10:07:01;1.58;;;0.80;;
84357;SDS011;74548;47.712;9.272;2024-02-23T10:09:26;1.63;;;0.80;;
84357;SDS011;74548;47.712;9.272;2024-02-23T10:11:55;2.70;;;1.38;;
84357;SDS011;74548;47.712;9.272;2024-02-23T10:14:20;1.92;;;0.90;;
84357;SDS011;74548;47.712;9.272;2024-02-23T10:16:46;1.30;;;0.85;;
84357;SDS011;74548;47.712;9.272;2024-02-23T10:19:12;1.50;;;0.85;;
84357;SDS011;74548;47.712;9.272;2024-02-23T10:21:37;1.77;;;0.80;;
84357;SDS011;74548;47.712;9.272;2024-02-23T10:24:04;2.40;;;0.77;;
84357;SDS011;74548;47.712;9.272;2024-02-23T10:26:30;1.85;;;0.80;;
84357;SDS011;74548;47.712;9.272;2024-02-23T10:28:55;2.37;;;0.83;;
84357;SDS011;74548;47.712;9.272;2024-02-23T10:31:21;0.93;;;0.63;;
84357;SDS011;74548;47.712;9.272;2024-02-23T10:33:49;2.40;;;1.00;;
84357;SDS011;74548;47.712;9.272;2024-02-23T10:36:17;1.88;;;0.80;;
84357;SDS011;74548;47.712;9.272;2024-02-23T10:38:43;1.95;;;0.80;;
84357;SDS011;74548;47.712;9.272;2024-02-23T10:41:12;2.30;;;0.68;;
84357;SDS011;74548;47.712;9.272;2024-02-23T10:43:44;1.73;;;0.77;;
84357;SDS011;74548;47.712;9.272;2024-02-23T10:46:11;1.27;;;0.63;;
84357;SDS011;74548;47.712;9.272;2024-02-23T10:48:40;1.40;;;0.80;;
84357;SDS011;74548;47.712;9.272;2024-02-23T10:51:07;2.53;;;0.80;;
84357;SDS011;74548;47.712;9.272;2024-02-23T10:53:36;1.35;;;0.75;;
84357;SDS011;74548;47.712;9.272;2024-02-23T10:56:04;2.38;;;0.80;;
84357;SDS011;74548;47.712;9.272;2024-02-23T10:58:30;2.80;;;1.00;;
84357;SDS011;74548;47.712;9.272;2024-02-23T11:01:05;0.80;;;0.53;;
84357;SDS011;74548;47.712;9.272;2024-02-23T11:03:33;2.35;;;0.80;;
84357;SDS011;74548;47.712;9.272;2024-02-23T11:06:02;0.82;;;0.50;;
84357;SDS011;74548;47.712;9.272;2024-02-23T11:08:34;2.08;;;0.77;;
84357;SDS011;74548;47.712;9.272;2024-02-23T11:11:11;1.77;;;0.80;;
84357;SDS011;74548;47.712;9.272;2024-02-23T11:13:39;1.40;;;0.80;;
84357;SDS011;74548;47.712;9.272;2024-02-23T11:16:05;1.15;;;0.60;;
84357;SDS011;74548;47.712;9.272;2024-02-23T11:18:34;1.30;;;0.60;;
84357;SDS011;74548;47.712;9.272;2024-02-23T11:21:00;1.15;;;0.75;;
84357;SDS011;74548;47.712;9.272;2024-02-23T11:23:27;2.08;;;0.80;;
84357;SDS011;74548;47.712;9.272;2024-02-23T11:26:05;2.15;;;0.68;;
84357;SDS011;74548;47.712;9.272;2024-02-23T11:28:41;1.90;;;0.73;;
84357;SDS011;74548;47.712;9.272;2024-02-23T11:31:11;1.58;;;0.68;;
84357;SDS011;74548;47.712;9.272;2024-02-23T11:33:37;1.85;;;0.77;;
84357;SDS011;74548;47.712;9.272;2024-02-23T11:36:06;1.30;;;0.50;;
84357;SDS011;74548;47.712;9.272;2024-02-23T11:38:33;0.95;;;0.50;;
84357;SDS011;74548;47.712;9.272;2024-02-23T11:40:59;1.15;;;0.88;;
84357;SDS011;74548;47.712;9.272;2024-02-23T11:43:26;1.23;;;0.70;;
84357;SDS011;74548;47.712;9.272;2024-02-23T11:45:52;1.60;;;0.70;;
84357;SDS011;74548;47.712;9.272;2024-02-23T11:48:17;2.17;;;0.43;;
84357;SDS011;74548;47.712;9.272;2024-02-23T11:50:42;1.93;;;0.73;;
84357;SDS011;74548;47.712;9.272;2024-02-23T11:53:08;1.10;;;0.53;;
84357;SDS011;74548;47.712;9.272;2024-02-23T11:55:33;2.20;;;0.80;;
84357;SDS011;74548;47.712;9.272;2024-02-23T11:57:59;1.40;;;0.60;;
84357;SDS011;74548;47.712;9.272;2024-02-23T12:00:24;2.53;;;0.70;;
84357;SDS011;74548;47.712;9.272;2024-02-23T12:02:50;1.77;;;0.60;;
84357;SDS011;74548;47.712;9.272;2024-02-23T12:05:15;1.10;;;0.65;;
84357;SDS011;74548;47.712;9.272;2024-02-23T12:07:41;1.80;;;0.50;;
84357;SDS011;74548;47.712;9.272;2024-02-23T12:10:07;2.67;;;0.90;;
84357;SDS011;74548;47.712;9.272;2024-02-23T12:12:33;1.20;;;0.60;;
84357;SDS011;74548;47.712;9.272;2024-02-23T12:14:59;1.52;;;0.52;;
84357;SDS011;74548;47.712;9.272;2024-02-23T12:17:25;1.40;;;0.40;;
84357;SDS011;74548;47.712;9.272;2024-02-23T12:20:00;1.20;;;0.57;;
84357;SDS011;74548;47.712;9.272;2024-02-23T12:22:26;2.03;;;0.52;;
84357;SDS011;74548;47.712;9.272;2024-02-23T12:24:52;1.17;;;0.70;;
84357;SDS011;74548;47.712;9.272;2024-02-23T12:27:17;1.27;;;0.57;;
84357;SDS011;74548;47.712;9.272;2024-02-23T12:29:52;1.30;;;0.80;;
84357;SDS011;74548;47.712;9.272;2024-02-23T12:32:22;1.63;;;0.60;;
84357;SDS011;74548;47.712;9.272;2024-02-23T12:34:48;1.60;;;0.60;;
84357;SDS011;74548;47.712;9.272;2024-02-23T12:37:14;2.20;;;0.70;;
84357;SDS011;74548;47.712;9.272;2024-02-23T12:39:41;1.08;;;0.52;;
84357;SDS011;74548;47.712;9.272;2024-02-23T12:42:07;0.50;;;0.38;;
84357;SDS011;74548;47.712;9.272;2024-02-23T12:44:32;3.45;;;0.75;;
84357;SDS011;74548;47.712;9.272;2024-02-23T12:46:58;2.15;;;0.43;;
84357;SDS011;74548;47.712;9.272;2024-02-23T12:51:38;1.38;;;0.50;;
84357;SDS011;74548;47.712;9.272;2024-02-23T12:54:03;1.27;;;0.70;;
84357;SDS011;74548;47.712;9.272;2024-02-23T12:56:29;1.85;;;0.50;;
84357;SDS011;74548;47.712;9.272;2024-02-23T12:58:55;1.00;;;0.50;;
84357;SDS011;74548;47.712;9.272;2024-02-23T13:01:20;0.77;;;0.50;;
84357;SDS011;74548;47.712;9.272;2024-02-23T13:03:45;1.10;;;0.70;;
84357;SDS011;74548;47.712;9.272;2024-02-23T13:06:11;1.63;;;0.70;;
84357;SDS011;74548;47.712;9.272;2024-02-23T13:08:37;1.13;;;0.70;;
84357;SDS011;74548;47.712;9.272;2024-02-23T13:11:05;2.55;;;0.60;;
84357;SDS011;74548;47.712;9.272;2024-02-23T13:13:30;0.63;;;0.40;;
84357;SDS011;74548;47.712;9.272;2024-02-23T13:15:56;1.40;;;0.50;;
84357;SDS011;74548;47.712;9.272;2024-02-23T13:18:22;1.88;;;0.57;;
84357;SDS011;74548;47.712;9.272;2024-02-23T13:20:47;1.75;;;0.57;;
84357;SDS011;74548;47.712;9.272;2024-02-23T13:23:13;0.57;;;0.30;;
84357;SDS011;74548;47.712;9.272;2024-02-23T13:25:40;0.80;;;0.50;;
84357;SDS011;74548;47.712;9.272;2024-02-23T13:28:07;0.60;;;0.40;;
84357;SDS011;74548;47.712;9.272;2024-02-23T13:30:33;1.38;;;0.60;;
84357;SDS011;74548;47.712;9.272;2024-02-23T13:32:59;1.10;;;0.50;;
84357;SDS011;74548;47.712;9.272;2024-02-23T13:35:25;2.75;;;0.65;;
84357;SDS011;74548;47.712;9.272;2024-02-23T13:37:51;0.60;;;0.35;;
84357;SDS011;74548;47.712;9.272;2024-02-23T13:40:16;0.63;;;0.47;;
84357;SDS011;74548;47.712;9.272;2024-02-23T13:42:42;1.33;;;0.60;;
84357;SDS011;74548;47.712;9.272;2024-02-23T13:45:10;1.25;;;0.50;;
84357;SDS011;74548;47.712;9.272;2024-02-23T13:47:38;0.73;;;0.40;;
84357;SDS011;74548;47.712;9.272;2024-02-23T13:50:04;1.13;;;0.60;;
84357;SDS011;74548;47.712;9.272;2024-02-23T13:52:30;0.55;;;0.35;;
84357;SDS011;74548;47.712;9.272;2024-02-23T13:54:56;0.85;;;0.50;;
84357;SDS011;74548;47.712;9.272;2024-02-23T13:59:50;1.25;;;0.70;;
84357;SDS011;74548;47.712;9.272;2024-02-23T14:02:16;0.70;;;0.40;;
84357;SDS011;74548;47.712;9.272;2024-02-23T14:04:41;2.22;;;0.40;;
84357;SDS011;74548;47.712;9.272;2024-02-23T14:11:40;0.70;;;0.40;;
84357;SDS011;74548;47.712;9.272;2024-02-23T14:14:05;0.60;;;0.40;;
84357;SDS011;74548;47.712;9.272;2024-02-23T14:16:32;0.82;;;0.40;;
84357;SDS011;74548;47.712;9.272;2024-02-23T14:18:58;0.80;;;0.50;;
84357;SDS011;74548;47.712;9.272;2024-02-23T14:21:23;2.40;;;0.63;;
84357;SDS011;74548;47.712;9.272;2024-02-23T14:23:50;1.65;;;0.63;;
84357;SDS011;74548;47.712;9.272;2024-02-23T14:26:15;1.58;;;0.50;;
84357;SDS011;74548;47.712;9.272;2024-02-23T14:28:41;3.00;;;0.60;;
84357;SDS011;74548;47.712;9.272;2024-02-23T14:31:06;0.73;;;0.40;;
84357;SDS011;74548;47.712;9.272;2024-02-23T14:33:32;2.72;;;0.63;;
84357;SDS011;74548;47.712;9.272;2024-02-23T14:35:57;2.10;;;0.65;;
84357;SDS011;74548;47.712;9.272;2024-02-23T14:38:22;1.38;;;0.73;;
84357;SDS011;74548;47.712;9.272;2024-02-23T14:40:48;1.33;;;0.50;;
84357;SDS011;74548;47.712;9.272;2024-02-23T14:43:13;0.95;;;0.45;;
84357;SDS011;74548;47.712;9.272;2024-02-23T14:45:39;1.70;;;0.52;;
84357;SDS011;74548;47.712;9.272;2024-02-23T14:48:04;1.20;;;0.52;;
84357;SDS011;74548;47.712;9.272;2024-02-23T14:50:30;1.55;;;0.47;;
84357;SDS011;74548;47.712;9.272;2024-02-23T14:55:13;0.98;;;0.43;;
84357;SDS011;74548;47.712;9.272;2024-02-23T14:57:38;0.82;;;0.45;;
84357;SDS011;74548;47.712;9.272;2024-02-23T15:00:04;1.67;;;0.50;;
84357;SDS011;74548;47.712;9.272;2024-02-23T15:02:30;3.05;;;0.60;;
84357;SDS011;74548;47.712;9.272;2024-02-23T15:07:16;1.35;;;0.47;;
84357;SDS011;74548;47.712;9.272;2024-02-23T15:09:42;0.63;;;0.40;;
84357;SDS011;74548;47.712;9.272;2024-02-23T15:12:08;2.40;;;0.80;;
84357;SDS011;74548;47.712;9.272;2024-02-23T15:14:33;1.90;;;0.40;;
84357;SDS011;74548;47.712;9.272;2024-02-23T15:19:20;0.63;;;0.40;;
84357;SDS011;74548;47.712;9.272;2024-02-23T15:21:48;2.47;;;0.43;;
84357;SDS011;74548;47.712;9.272;2024-02-23T15:24:14;2.45;;;0.50;;
84357;SDS011;74548;47.712;9.272;2024-02-23T15:26:39;0.50;;;0.30;;
84357;SDS011;74548;47.712;9.272;2024-02-23T15:29:05;1.33;;;0.60;;